sensor_id;sensor_type;location;lat;lon;timestamp;P1;durP1;ratioP1;P2;durP2;ratioP2
23614;SDS011;11985;49.404;7.734;2023-05-10T00:00:34;3.35;;;3.05;;
23614;SDS011;11985;49.404;7.734;2023-05-10T00:05:36;3.50;;;3.17;;
23614;SDS011;11985;49.404;7.734;2023-05-10T00:10:37;4.50;;;3.13;;
23614;SDS011;11985;49.404;7.734;2023-05-10T00:15:41;4.47;;;3.45;;
23614;SDS011;11985;49.404;7.734;2023-05-10T00:20:43;4.80;;;2.90;;
23614;SDS011;11985;49.404;7.734;2023-05-10T00:25:46;24.38;;;4.20;;
23614;SDS011;11985;49.404;7.734;2023-05-10T00:30:50;4.57;;;3.67;;
23614;SDS011;11985;49.404;7.734;2023-05-10T00:35:52;8.85;;;4.07;;
23614;SDS011;11985;49.404;7.734;2023-05-10T00:40:53;8.25;;;3.33;;
23614;SDS011;11985;49.404;7.734;2023-05-10T00:45:58;6.32;;;3.08;;
23614;SDS011;11985;49.404;7.734;2023-05-10T00:51:00;6.63;;;3.45;;
23614;SDS011;11985;49.404;7.734;2023-05-10T00:56:02;4.97;;;4.07;;
23614;SDS011;11985;49.404;7.734;2023-05-10T01:01:05;7.45;;;4.18;;
23614;SDS011;11985;49.404;7.734;2023-05-10T01:06:07;8.35;;;5.70;;
23614;SDS011;11985;49.404;7.734;2023-05-10T01:11:10;10.30;;;6.18;;
23614;SDS011;11985;49.404;7.734;2023-05-10T01:16:13;6.80;;;5.43;;
23614;SDS011;11985;49.404;7.734;2023-05-10T01:21:17;8.27;;;6.25;;
23614;SDS011;11985;49.404;7.734;2023-05-10T01:26:32;11.13;;;6.53;;
23614;SDS011;11985;49.404;7.734;2023-05-10T01:32:09;11.93;;;6.63;;
23614;SDS011;11985;49.404;7.734;2023-05-10T01:37:25;10.15;;;7.05;;
23614;SDS011;11985;49.404;7.734;2023-05-10T01:42:36;13.68;;;6.00;;
23614;SDS011;11985;49.404;7.734;2023-05-10T01:47:44;7.03;;;6.05;;
23614;SDS011;11985;49.404;7.734;2023-05-10T01:52:52;7.93;;;5.70;;
23614;SDS011;11985;49.404;7.734;2023-05-10T01:57:58;12.18;;;5.78;;
23614;SDS011;11985;49.404;7.734;2023-05-10T02:03:07;10.50;;;5.53;;
23614;SDS011;11985;49.404;7.734;2023-05-10T02:08:10;7.32;;;5.47;;
23614;SDS011;11985;49.404;7.734;2023-05-10T02:13:14;7.20;;;5.40;;
23614;SDS011;11985;49.404;7.734;2023-05-10T02:18:19;8.80;;;5.63;;
23614;SDS011;11985;49.404;7.734;2023-05-10T02:23:23;10.82;;;6.15;;
23614;SDS011;11985;49.404;7.734;2023-05-10T02:28:26;7.07;;;5.80;;
23614;SDS011;11985;49.404;7.734;2023-05-10T02:33:33;8.93;;;6.03;;
23614;SDS011;11985;49.404;7.734;2023-05-10T02:38:36;10.23;;;6.35;;
23614;SDS011;11985;49.404;7.734;2023-05-10T02:43:39;9.43;;;7.35;;
23614;SDS011;11985;49.404;7.734;2023-05-10T02:48:44;8.52;;;6.40;;
23614;SDS011;11985;49.404;7.734;2023-05-10T02:53:46;9.57;;;6.80;;
23614;SDS011;11985;49.404;7.734;2023-05-10T02:58:50;12.70;;;6.65;;
23614;SDS011;11985;49.404;7.734;2023-05-10T03:03:53;11.18;;;6.63;;
23614;SDS011;11985;49.404;7.734;2023-05-10T03:08:55;11.20;;;6.60;;
23614;SDS011;11985;49.404;7.734;2023-05-10T03:14:01;10.88;;;7.20;;
23614;SDS011;11985;49.404;7.734;2023-05-10T03:19:14;11.10;;;7.20;;
23614;SDS011;11985;49.404;7.734;2023-05-10T03:24:20;8.98;;;6.88;;
23614;SDS011;11985;49.404;7.734;2023-05-10T03:29:26;16.55;;;8.18;;
23614;SDS011;11985;49.404;7.734;2023-05-10T03:34:32;11.27;;;8.32;;
23614;SDS011;11985;49.404;7.734;2023-05-10T03:39:34;12.85;;;8.05;;
23614;SDS011;11985;49.404;7.734;2023-05-10T03:44:36;12.05;;;8.75;;
23614;SDS011;11985;49.404;7.734;2023-05-10T03:49:41;12.30;;;8.95;;
23614;SDS011;11985;49.404;7.734;2023-05-10T03:54:43;13.18;;;9.25;;
23614;SDS011;11985;49.404;7.734;2023-05-10T03:59:45;14.35;;;8.27;;
23614;SDS011;11985;49.404;7.734;2023-05-10T04:04:49;9.77;;;8.15;;
23614;SDS011;11985;49.404;7.734;2023-05-10T04:09:50;11.48;;;7.00;;
23614;SDS011;11985;49.404;7.734;2023-05-10T04:14:52;11.70;;;5.88;;
23614;SDS011;11985;49.404;7.734;2023-05-10T04:19:55;5.28;;;4.38;;
23614;SDS011;11985;49.404;7.734;2023-05-10T04:24:57;6.35;;;4.55;;
23614;SDS011;11985;49.404;7.734;2023-05-10T04:30:00;7.28;;;3.90;;
23614;SDS011;11985;49.404;7.734;2023-05-10T04:35:03;7.05;;;4.55;;
23614;SDS011;11985;49.404;7.734;2023-05-10T04:40:05;10.13;;;4.30;;
23614;SDS011;11985;49.404;7.734;2023-05-10T04:45:08;9.13;;;4.47;;
23614;SDS011;11985;49.404;7.734;2023-05-10T04:50:12;7.22;;;4.53;;
23614;SDS011;11985;49.404;7.734;2023-05-10T04:55:14;5.80;;;4.82;;
23614;SDS011;11985;49.404;7.734;2023-05-10T05:00:16;6.78;;;4.65;;
23614;SDS011;11985;49.404;7.734;2023-05-10T05:05:20;10.70;;;4.85;;
23614;SDS011;11985;49.404;7.734;2023-05-10T05:10:23;6.10;;;4.50;;
23614;SDS011;11985;49.404;7.734;2023-05-10T05:15:26;4.82;;;4.07;;
23614;SDS011;11985;49.404;7.734;2023-05-10T05:20:31;6.57;;;4.57;;
23614;SDS011;11985;49.404;7.734;2023-05-10T05:25:34;5.22;;;4.30;;
23614;SDS011;11985;49.404;7.734;2023-05-10T05:30:37;6.38;;;5.00;;
23614;SDS011;11985;49.404;7.734;2023-05-10T05:35:41;9.05;;;4.35;;
23614;SDS011;11985;49.404;7.734;2023-05-10T05:40:47;3.75;;;3.30;;
23614;SDS011;11985;49.404;7.734;2023-05-10T05:45:49;5.63;;;4.00;;
23614;SDS011;11985;49.404;7.734;2023-05-10T05:50:55;4.10;;;3.38;;
23614;SDS011;11985;49.404;7.734;2023-05-10T05:55:58;7.80;;;3.50;;
23614;SDS011;11985;49.404;7.734;2023-05-10T06:01:00;4.95;;;3.28;;
23614;SDS011;11985;49.404;7.734;2023-05-10T06:06:10;4.50;;;3.10;;
23614;SDS011;11985;49.404;7.734;2023-05-10T06:11:12;6.63;;;3.25;;
23614;SDS011;11985;49.404;7.734;2023-05-10T06:16:14;9.25;;;2.88;;
23614;SDS011;11985;49.404;7.734;2023-05-10T06:21:17;7.40;;;2.75;;
23614;SDS011;11985;49.404;7.734;2023-05-10T06:26:18;2.65;;;2.35;;
23614;SDS011;11985;49.404;7.734;2023-05-10T06:31:21;2.78;;;2.33;;
23614;SDS011;11985;49.404;7.734;2023-05-10T06:36:24;5.90;;;2.60;;
23614;SDS011;11985;49.404;7.734;2023-05-10T06:41:27;3.00;;;2.42;;
23614;SDS011;11985;49.404;7.734;2023-05-10T06:46:28;5.80;;;2.42;;
23614;SDS011;11985;49.404;7.734;2023-05-10T06:51:32;4.10;;;2.65;;
23614;SDS011;11985;49.404;7.734;2023-05-10T06:56:34;5.70;;;2.57;;
23614;SDS011;11985;49.404;7.734;2023-05-10T07:01:36;3.63;;;2.55;;
23614;SDS011;11985;49.404;7.734;2023-05-10T07:06:39;4.88;;;2.60;;
23614;SDS011;11985;49.404;7.734;2023-05-10T07:11:41;6.13;;;2.83;;
23614;SDS011;11985;49.404;7.734;2023-05-10T07:16:43;3.30;;;2.40;;
23614;SDS011;11985;49.404;7.734;2023-05-10T07:21:46;5.80;;;2.60;;
23614;SDS011;11985;49.404;7.734;2023-05-10T07:26:48;2.72;;;2.35;;
23614;SDS011;11985;49.404;7.734;2023-05-10T07:31:50;2.58;;;2.38;;
23614;SDS011;11985;49.404;7.734;2023-05-10T07:36:53;2.58;;;2.30;;
23614;SDS011;11985;49.404;7.734;2023-05-10T07:41:55;3.33;;;2.40;;
23614;SDS011;11985;49.404;7.734;2023-05-10T07:46:57;2.95;;;2.03;;
23614;SDS011;11985;49.404;7.734;2023-05-10T07:52:00;5.15;;;1.80;;
23614;SDS011;11985;49.404;7.734;2023-05-10T07:57:04;6.55;;;1.63;;
23614;SDS011;11985;49.404;7.734;2023-05-10T08:02:06;2.13;;;1.30;;
23614;SDS011;11985;49.404;7.734;2023-05-10T08:07:11;2.38;;;1.48;;
23614;SDS011;11985;49.404;7.734;2023-05-10T08:12:15;2.42;;;1.45;;
23614;SDS011;11985;49.404;7.734;2023-05-10T08:17:18;3.55;;;1.30;;
23614;SDS011;11985;49.404;7.734;2023-05-10T08:22:23;2.05;;;1.13;;
23614;SDS011;11985;49.404;7.734;2023-05-10T08:27:26;2.28;;;1.20;;
23614;SDS011;11985;49.404;7.734;2023-05-10T08:32:28;3.70;;;1.70;;
23614;SDS011;11985;49.404;7.734;2023-05-10T08:37:31;3.15;;;1.50;;
23614;SDS011;11985;49.404;7.734;2023-05-10T08:42:34;2.95;;;1.40;;
23614;SDS011;11985;49.404;7.734;2023-05-10T08:47:37;2.58;;;1.40;;
23614;SDS011;11985;49.404;7.734;2023-05-10T08:52:41;4.55;;;1.50;;
23614;SDS011;11985;49.404;7.734;2023-05-10T08:57:44;8.65;;;1.48;;
23614;SDS011;11985;49.404;7.734;2023-05-10T09:02:45;2.08;;;1.20;;
23614;SDS011;11985;49.404;7.734;2023-05-10T09:07:48;2.17;;;1.10;;
23614;SDS011;11985;49.404;7.734;2023-05-10T09:12:50;2.10;;;1.20;;
23614;SDS011;11985;49.404;7.734;2023-05-10T09:17:52;1.73;;;0.90;;
23614;SDS011;11985;49.404;7.734;2023-05-10T09:22:56;1.95;;;1.10;;
23614;SDS011;11985;49.404;7.734;2023-05-10T09:27:58;1.95;;;1.00;;
23614;SDS011;11985;49.404;7.734;2023-05-10T09:33:00;2.65;;;0.77;;
23614;SDS011;11985;49.404;7.734;2023-05-10T09:38:04;4.93;;;1.15;;
23614;SDS011;11985;49.404;7.734;2023-05-10T09:43:06;1.92;;;1.23;;
23614;SDS011;11985;49.404;7.734;2023-05-10T09:48:08;3.50;;;1.27;;
23614;SDS011;11985;49.404;7.734;2023-05-10T09:53:12;6.80;;;1.40;;
23614;SDS011;11985;49.404;7.734;2023-05-10T09:58:15;3.58;;;1.23;;
23614;SDS011;11985;49.404;7.734;2023-05-10T10:03:18;5.43;;;1.40;;
23614;SDS011;11985;49.404;7.734;2023-05-10T10:08:22;3.22;;;1.42;;
23614;SDS011;11985;49.404;7.734;2023-05-10T10:13:24;3.20;;;1.23;;
23614;SDS011;11985;49.404;7.734;2023-05-10T10:18:25;3.70;;;1.38;;
23614;SDS011;11985;49.404;7.734;2023-05-10T10:23:30;1.80;;;1.10;;
23614;SDS011;11985;49.404;7.734;2023-05-10T10:28:33;4.00;;;1.55;;
23614;SDS011;11985;49.404;7.734;2023-05-10T10:33:49;2.72;;;1.10;;
23614;SDS011;11985;49.404;7.734;2023-05-10T10:38:58;4.90;;;1.30;;
23614;SDS011;11985;49.404;7.734;2023-05-10T10:49:38;2.20;;;1.02;;
23614;SDS011;11985;49.404;7.734;2023-05-10T10:54:50;8.50;;;1.55;;
23614;SDS011;11985;49.404;7.734;2023-05-10T11:00:03;4.15;;;1.35;;
23614;SDS011;11985;49.404;7.734;2023-05-10T11:05:23;6.00;;;1.10;;
23614;SDS011;11985;49.404;7.734;2023-05-10T11:10:37;3.58;;;0.90;;
23614;SDS011;11985;49.404;7.734;2023-05-10T11:15:39;2.22;;;1.00;;
23614;SDS011;11985;49.404;7.734;2023-05-10T11:20:49;1.98;;;0.88;;
23614;SDS011;11985;49.404;7.734;2023-05-10T11:25:53;7.68;;;1.35;;
23614;SDS011;11985;49.404;7.734;2023-05-10T11:30:55;3.53;;;1.30;;
23614;SDS011;11985;49.404;7.734;2023-05-10T11:35:57;4.32;;;1.25;;
23614;SDS011;11985;49.404;7.734;2023-05-10T11:41:00;3.70;;;0.88;;
23614;SDS011;11985;49.404;7.734;2023-05-10T11:46:02;4.30;;;1.00;;
23614;SDS011;11985;49.404;7.734;2023-05-10T11:51:03;1.95;;;0.77;;
23614;SDS011;11985;49.404;7.734;2023-05-10T11:56:07;2.28;;;0.73;;
23614;SDS011;11985;49.404;7.734;2023-05-10T12:01:09;1.50;;;0.60;;
23614;SDS011;11985;49.404;7.734;2023-05-10T12:06:12;3.42;;;0.68;;
23614;SDS011;11985;49.404;7.734;2023-05-10T12:11:15;2.00;;;0.68;;
23614;SDS011;11985;49.404;7.734;2023-05-10T12:16:17;1.23;;;0.60;;
23614;SDS011;11985;49.404;7.734;2023-05-10T12:21:20;1.30;;;0.60;;
23614;SDS011;11985;49.404;7.734;2023-05-10T12:26:24;1.67;;;0.63;;
23614;SDS011;11985;49.404;7.734;2023-05-10T12:31:27;6.80;;;1.08;;
23614;SDS011;11985;49.404;7.734;2023-05-10T12:36:28;1.02;;;0.65;;
23614;SDS011;11985;49.404;7.734;2023-05-10T12:41:32;1.52;;;0.90;;
23614;SDS011;11985;49.404;7.734;2023-05-10T12:46:34;1.73;;;0.70;;
23614;SDS011;11985;49.404;7.734;2023-05-10T12:51:36;3.50;;;0.73;;
23614;SDS011;11985;49.404;7.734;2023-05-10T12:56:38;2.15;;;0.57;;
23614;SDS011;11985;49.404;7.734;2023-05-10T13:01:40;3.88;;;0.88;;
23614;SDS011;11985;49.404;7.734;2023-05-10T13:06:42;2.50;;;0.63;;
23614;SDS011;11985;49.404;7.734;2023-05-10T13:11:45;18.30;;;12.70;;
23614;SDS011;11985;49.404;7.734;2023-05-10T13:16:48;7.63;;;0.90;;
23614;SDS011;11985;49.404;7.734;2023-05-10T13:21:49;2.80;;;1.60;;
23614;SDS011;11985;49.404;7.734;2023-05-10T13:26:52;4.10;;;1.48;;
23614;SDS011;11985;49.404;7.734;2023-05-10T13:31:54;1.73;;;0.50;;
23614;SDS011;11985;49.404;7.734;2023-05-10T13:36:56;1.67;;;0.68;;
23614;SDS011;11985;49.404;7.734;2023-05-10T13:41:59;4.55;;;0.65;;
23614;SDS011;11985;49.404;7.734;2023-05-10T13:47:00;1.13;;;0.40;;
23614;SDS011;11985;49.404;7.734;2023-05-10T13:52:02;1.75;;;0.50;;
23614;SDS011;11985;49.404;7.734;2023-05-10T13:57:08;1.83;;;0.55;;
23614;SDS011;11985;49.404;7.734;2023-05-10T14:02:11;2.63;;;0.50;;
23614;SDS011;11985;49.404;7.734;2023-05-10T14:07:13;2.55;;;0.60;;
23614;SDS011;11985;49.404;7.734;2023-05-10T14:12:16;5.82;;;0.40;;
23614;SDS011;11985;49.404;7.734;2023-05-10T14:17:17;1.38;;;0.57;;
23614;SDS011;11985;49.404;7.734;2023-05-10T14:22:19;3.40;;;0.60;;
23614;SDS011;11985;49.404;7.734;2023-05-10T14:27:22;7.40;;;0.82;;
23614;SDS011;11985;49.404;7.734;2023-05-10T14:32:23;2.55;;;0.75;;
23614;SDS011;11985;49.404;7.734;2023-05-10T14:37:26;1.05;;;0.50;;
23614;SDS011;11985;49.404;7.734;2023-05-10T14:42:29;1.83;;;0.85;;
23614;SDS011;11985;49.404;7.734;2023-05-10T14:47:31;2.42;;;0.50;;
23614;SDS011;11985;49.404;7.734;2023-05-10T14:52:33;1.83;;;0.70;;
23614;SDS011;11985;49.404;7.734;2023-05-10T14:57:36;2.22;;;0.60;;
23614;SDS011;11985;49.404;7.734;2023-05-10T15:02:38;3.20;;;0.75;;
23614;SDS011;11985;49.404;7.734;2023-05-10T15:07:39;2.88;;;0.68;;
23614;SDS011;11985;49.404;7.734;2023-05-10T15:12:44;3.20;;;0.60;;
23614;SDS011;11985;49.404;7.734;2023-05-10T15:17:47;0.75;;;0.45;;
23614;SDS011;11985;49.404;7.734;2023-05-10T15:22:48;0.50;;;0.40;;
23614;SDS011;11985;49.404;7.734;2023-05-10T15:27:52;0.25;;;0.25;;
23614;SDS011;11985;49.404;7.734;2023-05-10T15:32:53;1.52;;;0.75;;
23614;SDS011;11985;49.404;7.734;2023-05-10T15:37:55;1.17;;;0.50;;
23614;SDS011;11985;49.404;7.734;2023-05-10T15:42:58;5.65;;;0.60;;
23614;SDS011;11985;49.404;7.734;2023-05-10T15:47:59;0.85;;;0.43;;
23614;SDS011;11985;49.404;7.734;2023-05-10T15:53:01;3.22;;;0.40;;
23614;SDS011;11985;49.404;7.734;2023-05-10T15:58:06;0.47;;;0.30;;
23614;SDS011;11985;49.404;7.734;2023-05-10T16:03:08;0.20;;;0.20;;
23614;SDS011;11985;49.404;7.734;2023-05-10T16:08:10;1.58;;;0.40;;
23614;SDS011;11985;49.404;7.734;2023-05-10T16:13:13;0.73;;;0.20;;
23614;SDS011;11985;49.404;7.734;2023-05-10T16:18:15;0.50;;;0.20;;
23614;SDS011;11985;49.404;7.734;2023-05-10T16:23:17;3.33;;;0.50;;
23614;SDS011;11985;49.404;7.734;2023-05-10T16:28:21;0.75;;;0.22;;
23614;SDS011;11985;49.404;7.734;2023-05-10T16:33:25;1.27;;;0.30;;
23614;SDS011;11985;49.404;7.734;2023-05-10T16:43:32;0.65;;;0.30;;
23614;SDS011;11985;49.404;7.734;2023-05-10T16:48:33;0.52;;;0.20;;
23614;SDS011;11985;49.404;7.734;2023-05-10T16:53:35;1.05;;;0.50;;
23614;SDS011;11985;49.404;7.734;2023-05-10T16:58:38;1.42;;;0.55;;
23614;SDS011;11985;49.404;7.734;2023-05-10T17:03:39;1.27;;;0.68;;
23614;SDS011;11985;49.404;7.734;2023-05-10T17:08:41;1.42;;;0.60;;
23614;SDS011;11985;49.404;7.734;2023-05-10T17:13:44;0.98;;;0.50;;
23614;SDS011;11985;49.404;7.734;2023-05-10T17:18:45;1.20;;;0.35;;
23614;SDS011;11985;49.404;7.734;2023-05-10T17:23:47;1.33;;;0.40;;
23614;SDS011;11985;49.404;7.734;2023-05-10T17:28:50;0.82;;;0.40;;
23614;SDS011;11985;49.404;7.734;2023-05-10T17:33:52;2.83;;;0.50;;
23614;SDS011;11985;49.404;7.734;2023-05-10T17:38:54;4.82;;;0.65;;
23614;SDS011;11985;49.404;7.734;2023-05-10T17:43:57;2.60;;;0.40;;
23614;SDS011;11985;49.404;7.734;2023-05-10T17:48:59;2.22;;;0.38;;
23614;SDS011;11985;49.404;7.734;2023-05-10T17:54:00;0.93;;;0.55;;
23614;SDS011;11985;49.404;7.734;2023-05-10T17:59:03;3.08;;;0.40;;
23614;SDS011;11985;49.404;7.734;2023-05-10T18:04:05;3.50;;;0.60;;
23614;SDS011;11985;49.404;7.734;2023-05-10T18:09:07;0.70;;;0.60;;
23614;SDS011;11985;49.404;7.734;2023-05-10T18:14:10;0.70;;;0.57;;
23614;SDS011;11985;49.404;7.734;2023-05-10T18:19:11;1.45;;;0.60;;
23614;SDS011;11985;49.404;7.734;2023-05-10T18:24:13;1.45;;;0.50;;
23614;SDS011;11985;49.404;7.734;2023-05-10T18:29:16;2.47;;;0.82;;
23614;SDS011;11985;49.404;7.734;2023-05-10T18:34:19;1.13;;;0.40;;
23614;SDS011;11985;49.404;7.734;2023-05-10T18:39:20;0.47;;;0.47;;
23614;SDS011;11985;49.404;7.734;2023-05-10T18:44:23;0.75;;;0.40;;
23614;SDS011;11985;49.404;7.734;2023-05-10T18:49:26;1.08;;;0.60;;
23614;SDS011;11985;49.404;7.734;2023-05-10T18:54:28;1.75;;;0.85;;
23614;SDS011;11985;49.404;7.734;2023-05-10T18:59:31;1.15;;;0.90;;
23614;SDS011;11985;49.404;7.734;2023-05-10T19:04:33;1.42;;;0.85;;
23614;SDS011;11985;49.404;7.734;2023-05-10T19:09:35;2.60;;;0.50;;
23614;SDS011;11985;49.404;7.734;2023-05-10T19:14:37;0.73;;;0.70;;
23614;SDS011;11985;49.404;7.734;2023-05-10T19:19:39;1.35;;;0.98;;
23614;SDS011;11985;49.404;7.734;2023-05-10T19:24:41;2.78;;;0.60;;
23614;SDS011;11985;49.404;7.734;2023-05-10T19:29:44;1.58;;;0.85;;
23614;SDS011;11985;49.404;7.734;2023-05-10T19:34:45;2.35;;;0.85;;
23614;SDS011;11985;49.404;7.734;2023-05-10T19:39:47;3.42;;;0.90;;
23614;SDS011;11985;49.404;7.734;2023-05-10T19:44:50;3.63;;;1.10;;
23614;SDS011;11985;49.404;7.734;2023-05-10T19:49:51;9.32;;;1.00;;
23614;SDS011;11985;49.404;7.734;2023-05-10T19:54:53;5.35;;;0.93;;
23614;SDS011;11985;49.404;7.734;2023-05-10T19:59:56;2.60;;;0.73;;
23614;SDS011;11985;49.404;7.734;2023-05-10T20:04:57;1.15;;;0.82;;
23614;SDS011;11985;49.404;7.734;2023-05-10T20:09:59;3.33;;;0.95;;
23614;SDS011;11985;49.404;7.734;2023-05-10T20:15:04;2.63;;;1.08;;
23614;SDS011;11985;49.404;7.734;2023-05-10T20:20:07;4.55;;;0.70;;
23614;SDS011;11985;49.404;7.734;2023-05-10T20:25:09;1.55;;;0.68;;
23614;SDS011;11985;49.404;7.734;2023-05-10T20:30:12;2.83;;;0.73;;
23614;SDS011;11985;49.404;7.734;2023-05-10T20:35:14;2.45;;;1.23;;
23614;SDS011;11985;49.404;7.734;2023-05-10T20:40:15;1.80;;;0.88;;
23614;SDS011;11985;49.404;7.734;2023-05-10T20:45:18;3.75;;;0.70;;
23614;SDS011;11985;49.404;7.734;2023-05-10T20:50:20;2.08;;;0.85;;
23614;SDS011;11985;49.404;7.734;2023-05-10T20:55:21;1.98;;;0.88;;
23614;SDS011;11985;49.404;7.734;2023-05-10T21:00:25;0.95;;;0.63;;
23614;SDS011;11985;49.404;7.734;2023-05-10T21:05:26;5.47;;;0.88;;
23614;SDS011;11985;49.404;7.734;2023-05-10T21:10:28;1.73;;;0.77;;
23614;SDS011;11985;49.404;7.734;2023-05-10T21:15:31;5.63;;;0.90;;
23614;SDS011;11985;49.404;7.734;2023-05-10T21:20:33;1.38;;;0.70;;
23614;SDS011;11985;49.404;7.734;2023-05-10T21:25:34;3.03;;;1.08;;
23614;SDS011;11985;49.404;7.734;2023-05-10T21:30:37;1.40;;;0.80;;
23614;SDS011;11985;49.404;7.734;2023-05-10T21:35:39;3.70;;;0.80;;
23614;SDS011;11985;49.404;7.734;2023-05-10T21:40:41;1.23;;;0.80;;
23614;SDS011;11985;49.404;7.734;2023-05-10T21:45:44;1.17;;;0.85;;
23614;SDS011;11985;49.404;7.734;2023-05-10T21:50:46;2.20;;;0.90;;
23614;SDS011;11985;49.404;7.734;2023-05-10T21:55:47;1.50;;;1.00;;
23614;SDS011;11985;49.404;7.734;2023-05-10T22:00:50;2.20;;;0.90;;
23614;SDS011;11985;49.404;7.734;2023-05-10T22:05:52;1.88;;;0.95;;
23614;SDS011;11985;49.404;7.734;2023-05-10T22:10:53;1.92;;;1.08;;
23614;SDS011;11985;49.404;7.734;2023-05-10T22:15:56;1.52;;;1.00;;
23614;SDS011;11985;49.404;7.734;2023-05-10T22:20:58;5.63;;;1.08;;
23614;SDS011;11985;49.404;7.734;2023-05-10T22:26:00;1.92;;;1.00;;
23614;SDS011;11985;49.404;7.734;2023-05-10T22:31:07;1.40;;;1.02;;
23614;SDS011;11985;49.404;7.734;2023-05-10T22:36:09;3.45;;;0.80;;
23614;SDS011;11985;49.404;7.734;2023-05-10T22:41:11;3.08;;;1.20;;
23614;SDS011;11985;49.404;7.734;2023-05-10T22:46:17;3.17;;;1.10;;
23614;SDS011;11985;49.404;7.734;2023-05-10T22:51:18;4.78;;;1.88;;
23614;SDS011;11985;49.404;7.734;2023-05-10T22:56:20;7.20;;;1.15;;
23614;SDS011;11985;49.404;7.734;2023-05-10T23:01:23;2.35;;;1.05;;
23614;SDS011;11985;49.404;7.734;2023-05-10T23:06:25;1.52;;;0.80;;
23614;SDS011;11985;49.404;7.734;2023-05-10T23:11:27;1.98;;;1.13;;
23614;SDS011;11985;49.404;7.734;2023-05-10T23:16:30;3.50;;;1.00;;
23614;SDS011;11985;49.404;7.734;2023-05-10T23:21:31;2.25;;;0.90;;
23614;SDS011;11985;49.404;7.734;2023-05-10T23:26:33;4.72;;;1.02;;
23614;SDS011;11985;49.404;7.734;2023-05-10T23:31:36;3.83;;;1.30;;
23614;SDS011;11985;49.404;7.734;2023-05-10T23:36:40;5.20;;;1.10;;
23614;SDS011;11985;49.404;7.734;2023-05-10T23:41:41;3.40;;;1.17;;
23614;SDS011;11985;49.404;7.734;2023-05-10T23:46:45;2.88;;;1.15;;
23614;SDS011;11985;49.404;7.734;2023-05-10T23:51:46;3.05;;;1.10;;
23614;SDS011;11985;49.404;7.734;2023-05-10T23:56:48;2.42;;;0.90;;
